Time,TemperatureF,DewpointF,PressureIn,WindDirection,WindDirectionDegrees,WindSpeedMPH,WindSpeedGustMPH,Humidity,HourlyPrecipIn,Conditions,Clouds,dailyrainin,SolarRadiationWatts/m^2,SoftwareType,DateUTC
2013-04-28 00:12:00,71.0,63.0,30.34,ENE,76,13.0,22.0,76,0.00,,,0.00,0.000000,,2013-04-28 10:12:00,
2013-04-28 00:22:00,71.0,63.0,30.34,ENE,76,13.0,22.0,76,0.00,,,0.00,0.000000,,2013-04-28 10:22:00,
2013-04-28 00:32:00,71.0,63.0,30.34,ENE,76,13.0,22.0,76,0.00,,,0.00,0.000000,,2013-04-28 10:32:00,
2013-04-28 00:42:00,71.0,63.0,30.34,ENE,76,13.0,22.0,76,0.00,,,0.00,0.000000,,2013-04-28 10:42:00,
2013-04-28 00:52:00,71.0,63.0,30.34,ENE,76,13.0,22.0,76,0.00,,,0.00,0.000000,,2013-04-28 10:52:00,
2013-04-28 01:22:00,71.0,65.0,30.33,ENE,66,14.0,24.0,80,0.00,,,0.00,0.000000,,2013-04-28 11:22:00,
2013-04-28 01:32:00,71.0,65.0,30.33,ENE,66,14.0,24.0,80,0.00,,,0.00,0.000000,,2013-04-28 11:32:00,
2013-04-28 01:42:00,71.0,65.0,30.33,ENE,66,14.0,24.0,80,0.00,,,0.00,0.000000,,2013-04-28 11:42:00,
2013-04-28 01:52:00,71.0,65.0,30.33,ENE,66,14.0,24.0,80,0.00,,,0.00,0.000000,,2013-04-28 11:52:00,
2013-04-28 02:11:00,71.0,64.0,30.31,ENE,74,15.0,26.0,79,0.00,,,0.00,0.000000,,2013-04-28 12:11:00,
2013-04-28 02:21:00,71.0,64.0,30.31,ENE,74,15.0,26.0,79,0.00,,,0.00,0.000000,,2013-04-28 12:21:00,
2013-04-28 02:32:00,71.0,64.0,30.31,ENE,74,15.0,26.0,79,0.00,,,0.00,0.000000,,2013-04-28 12:32:00,
2013-04-28 02:42:00,71.0,64.0,30.31,ENE,74,15.0,26.0,79,0.00,,,0.00,0.000000,,2013-04-28 12:42:00,
2013-04-28 02:51:00,71.0,64.0,30.31,ENE,74,15.0,26.0,79,0.00,,,0.00,0.000000,,2013-04-28 12:51:00,
2013-04-28 03:11:00,72.0,66.0,30.30,ENE,71,13.0,25.0,82,0.00,,,0.00,0.000000,,2013-04-28 13:11:00,
2013-04-28 03:21:00,72.0,66.0,30.30,ENE,71,13.0,25.0,82,0.00,,,0.00,0.000000,,2013-04-28 13:21:00,
2013-04-28 03:31:00,72.0,66.0,30.30,ENE,71,13.0,25.0,82,0.00,,,0.00,0.000000,,2013-04-28 13:31:00,
2013-04-28 03:42:00,72.0,66.0,30.30,ENE,71,13.0,25.0,82,0.00,,,0.00,0.000000,,2013-04-28 13:42:00,
2013-04-28 03:52:00,72.0,66.0,30.30,ENE,71,13.0,25.0,82,0.00,,,0.00,0.000000,,2013-04-28 13:52:00,
2013-04-28 04:21:00,72.0,66.0,30.29,ENE,64,15.0,24.0,82,0.00,,,0.00,0.000000,,2013-04-28 14:21:00,
2013-04-28 04:31:00,72.0,66.0,30.29,ENE,64,15.0,24.0,82,0.00,,,0.00,0.000000,,2013-04-28 14:31:00,
2013-04-28 04:41:00,72.0,66.0,30.29,ENE,64,15.0,24.0,82,0.00,,,0.00,0.000000,,2013-04-28 14:41:00,
2013-04-28 04:52:00,72.0,66.0,30.29,ENE,64,15.0,24.0,82,0.00,,,0.00,0.000000,,2013-04-28 14:52:00,
2013-04-28 04:53:00,70.0,65.0,30.29,ENE,74,12.0,20.0,84,0.00,,,0.00,0.000000,,2013-04-28 14:53:00,
2013-04-28 05:21:00,70.0,65.0,30.29,ENE,74,12.0,20.0,84,0.00,,,0.00,0.000000,,2013-04-28 15:21:00,
2013-04-28 05:32:00,70.0,65.0,30.29,ENE,74,12.0,20.0,84,0.00,,,0.00,0.000000,,2013-04-28 15:32:00,
2013-04-28 05:42:00,70.0,65.0,30.29,ENE,74,12.0,20.0,84,0.00,,,0.00,0.000000,,2013-04-28 15:42:00,
2013-04-28 06:13:00,70.0,65.0,30.30,ENE,59,9.0,18.0,83,0.00,,,0.00,0.000000,,2013-04-28 16:13:00,
2013-04-28 06:23:00,70.0,65.0,30.30,ENE,59,9.0,18.0,83,0.00,,,0.00,0.000000,,2013-04-28 16:23:00,
2013-04-28 06:32:00,70.0,65.0,30.30,ENE,59,9.0,18.0,83,0.00,,,0.00,0.000000,,2013-04-28 16:32:00,
2013-04-28 06:42:00,70.0,65.0,30.30,ENE,59,9.0,18.0,83,0.00,,,0.00,0.000000,,2013-04-28 16:42:00,
2013-04-28 06:52:00,70.0,65.0,30.30,ENE,59,9.0,18.0,83,0.00,,,0.00,0.000000,,2013-04-28 16:52:00,
2013-04-28 07:21:00,71.0,65.0,30.32,NE,48,7.0,15.0,80,0.00,,,0.00,0.000000,,2013-04-28 17:21:00,
2013-04-28 07:32:00,71.0,65.0,30.32,NE,48,7.0,15.0,80,0.00,,,0.00,0.000000,,2013-04-28 17:32:00,
2013-04-28 07:42:00,71.0,65.0,30.32,NE,48,7.0,15.0,80,0.00,,,0.00,0.000000,,2013-04-28 17:42:00,
2013-04-28 07:51:00,71.0,65.0,30.32,NE,48,7.0,15.0,80,0.00,,,0.00,0.000000,,2013-04-28 17:51:00,
2013-04-28 08:12:00,77.0,66.0,30.34,ENE,70,4.0,10.0,68,0.00,,,0.00,50.000000,,2013-04-28 18:12:00,
2013-04-28 08:22:00,77.0,66.0,30.34,ENE,70,4.0,10.0,68,0.00,,,0.00,50.000000,,2013-04-28 18:22:00,
2013-04-28 08:32:00,77.0,66.0,30.34,ENE,70,4.0,10.0,68,0.00,,,0.00,50.000000,,2013-04-28 18:32:00,
2013-04-28 08:42:00,77.0,66.0,30.34,ENE,70,4.0,10.0,68,0.00,,,0.00,50.000000,,2013-04-28 18:42:00,
2013-04-28 08:51:00,77.0,66.0,30.34,ENE,70,4.0,10.0,68,0.00,,,0.00,50.000000,,2013-04-28 18:51:00,
2013-04-28 09:11:00,78.0,64.0,30.34,ENE,62,4.0,10.0,63,0.00,,,0.00,304.000000,,2013-04-28 19:11:00,
2013-04-28 09:21:00,78.0,64.0,30.34,ENE,62,4.0,10.0,63,0.00,,,0.00,304.000000,,2013-04-28 19:21:00,
2013-04-28 09:31:00,78.0,64.0,30.34,ENE,62,4.0,10.0,63,0.00,,,0.00,304.000000,,2013-04-28 19:31:00,
2013-04-28 09:41:00,78.0,64.0,30.34,ENE,62,4.0,10.0,63,0.00,,,0.00,304.000000,,2013-04-28 19:41:00,
2013-04-28 09:52:00,78.0,64.0,30.34,ENE,62,4.0,10.0,63,0.00,,,0.00,304.000000,,2013-04-28 19:52:00,
2013-04-28 10:11:00,77.0,65.0,30.35,South,171,5.0,9.0,66,0.00,,,0.00,590.000000,,2013-04-28 20:11:00,
2013-04-28 10:22:00,77.0,65.0,30.35,South,171,5.0,9.0,66,0.00,,,0.00,590.000000,,2013-04-28 20:22:00,
2013-04-28 10:32:00,77.0,65.0,30.35,South,171,5.0,9.0,66,0.00,,,0.00,590.000000,,2013-04-28 20:32:00,
2013-04-28 10:41:00,77.0,65.0,30.35,South,171,5.0,9.0,66,0.00,,,0.00,590.000000,,2013-04-28 20:41:00,
2013-04-28 10:51:00,77.0,65.0,30.35,South,171,5.0,9.0,66,0.00,,,0.00,590.000000,,2013-04-28 20:51:00,
2013-04-28 11:11:00,78.0,65.0,30.34,South,186,6.0,11.0,65,0.00,,,0.00,373.000000,,2013-04-28 21:11:00,
2013-04-28 11:22:00,78.0,65.0,30.34,South,186,6.0,11.0,65,0.00,,,0.00,373.000000,,2013-04-28 21:22:00,
2013-04-28 11:32:00,78.0,65.0,30.34,South,186,6.0,11.0,65,0.00,,,0.00,373.000000,,2013-04-28 21:32:00,
2013-04-28 11:42:00,78.0,65.0,30.34,South,186,6.0,11.0,65,0.00,,,0.00,373.000000,,2013-04-28 21:42:00,
2013-04-28 11:52:00,78.0,65.0,30.34,South,186,6.0,11.0,65,0.00,,,0.00,373.000000,,2013-04-28 21:52:00,
2013-04-28 12:12:00,78.0,66.0,30.32,South,191,7.0,12.0,67,0.00,,,0.00,1031.000000,,2013-04-28 22:12:00,
2013-04-28 12:22:00,78.0,66.0,30.32,South,191,7.0,12.0,67,0.00,,,0.00,1031.000000,,2013-04-28 22:22:00,
2013-04-28 12:33:00,78.0,66.0,30.32,South,191,7.0,12.0,67,0.00,,,0.00,1031.000000,,2013-04-28 22:33:00,
2013-04-28 12:42:00,78.0,66.0,30.32,South,191,7.0,12.0,67,0.00,,,0.00,1031.000000,,2013-04-28 22:42:00,
2013-04-28 12:52:00,78.0,66.0,30.32,South,191,7.0,12.0,67,0.00,,,0.00,1031.000000,,2013-04-28 22:52:00,
2013-04-28 13:22:00,78.0,67.0,30.31,SSW,202,10.0,17.0,69,0.00,,,0.00,1178.000000,,2013-04-28 23:22:00,
2013-04-28 13:32:00,78.0,67.0,30.31,SSW,202,10.0,17.0,69,0.00,,,0.00,1178.000000,,2013-04-28 23:32:00,
2013-04-28 13:41:00,78.0,67.0,30.31,SSW,202,10.0,17.0,69,0.00,,,0.00,1178.000000,,2013-04-28 23:41:00,
2013-04-28 13:51:00,78.0,67.0,30.31,SSW,202,10.0,17.0,69,0.00,,,0.00,1178.000000,,2013-04-28 23:51:00,
2013-04-28 14:11:00,79.0,64.0,30.29,WSW,240,10.0,19.0,61,0.00,,,0.00,1187.000000,,2013-04-29 00:11:00,
2013-04-28 14:22:00,79.0,64.0,30.29,WSW,240,10.0,19.0,61,0.00,,,0.00,1187.000000,,2013-04-29 00:22:00,
2013-04-28 14:32:00,79.0,64.0,30.29,WSW,240,10.0,19.0,61,0.00,,,0.00,1187.000000,,2013-04-29 00:32:00,
2013-04-28 14:41:00,79.0,64.0,30.29,WSW,240,10.0,19.0,61,0.00,,,0.00,1187.000000,,2013-04-29 00:41:00,
2013-04-28 14:52:00,79.0,64.0,30.29,WSW,240,10.0,19.0,61,0.00,,,0.00,1187.000000,,2013-04-29 00:52:00,
2013-04-28 15:12:00,79.0,66.0,30.28,SW,229,6.0,22.0,64,0.00,,,0.00,1143.000000,,2013-04-29 01:12:00,
2013-04-28 15:21:00,79.0,66.0,30.28,SW,229,6.0,22.0,64,0.00,,,0.00,1143.000000,,2013-04-29 01:21:00,
2013-04-28 15:32:00,79.0,66.0,30.28,SW,229,6.0,22.0,64,0.00,,,0.00,1143.000000,,2013-04-29 01:32:00,
2013-04-28 15:41:00,79.0,66.0,30.28,SW,229,6.0,22.0,64,0.00,,,0.00,1143.000000,,2013-04-29 01:41:00,
2013-04-28 15:52:00,79.0,66.0,30.28,SW,229,6.0,22.0,64,0.00,,,0.00,1143.000000,,2013-04-29 01:52:00,
2013-04-28 16:11:00,79.0,66.0,30.26,SSW,207,9.0,17.0,64,0.00,,,0.00,665.000000,,2013-04-29 02:11:00,
2013-04-28 16:21:00,79.0,66.0,30.26,SSW,207,9.0,17.0,64,0.00,,,0.00,665.000000,,2013-04-29 02:21:00,
2013-04-28 16:31:00,79.0,66.0,30.26,SSW,207,9.0,17.0,64,0.00,,,0.00,665.000000,,2013-04-29 02:31:00,
2013-04-28 16:41:00,79.0,66.0,30.26,SSW,207,9.0,17.0,64,0.00,,,0.00,665.000000,,2013-04-29 02:41:00,
2013-04-28 16:51:00,79.0,66.0,30.26,SSW,207,9.0,17.0,64,0.00,,,0.00,665.000000,,2013-04-29 02:51:00,
2013-04-28 17:12:00,79.0,67.0,30.26,SW,232,7.0,15.0,66,0.00,,,0.00,967.000000,,2013-04-29 03:12:00,
2013-04-28 17:21:00,79.0,67.0,30.26,SW,232,7.0,15.0,66,0.00,,,0.00,967.000000,,2013-04-29 03:21:00,
2013-04-28 17:33:00,79.0,67.0,30.26,SW,232,7.0,15.0,66,0.00,,,0.00,967.000000,,2013-04-29 03:33:00,
2013-04-28 17:42:00,79.0,67.0,30.26,SW,232,7.0,15.0,66,0.00,,,0.00,967.000000,,2013-04-29 03:42:00,
2013-04-28 17:52:00,79.0,67.0,30.26,SW,232,7.0,15.0,66,0.00,,,0.00,967.000000,,2013-04-29 03:52:00,
2013-04-28 18:13:00,75.0,66.0,30.27,SSE,150,4.0,14.0,73,0.00,,,0.00,599.000000,,2013-04-29 04:13:00,
2013-04-28 18:23:00,75.0,66.0,30.27,SSE,150,4.0,14.0,73,0.00,,,0.00,599.000000,,2013-04-29 04:23:00,
2013-04-28 18:32:00,75.0,66.0,30.27,SSE,150,4.0,14.0,73,0.00,,,0.00,599.000000,,2013-04-29 04:32:00,
2013-04-28 18:43:00,75.0,66.0,30.27,SSE,150,4.0,14.0,73,0.00,,,0.00,599.000000,,2013-04-29 04:43:00,
2013-04-28 18:52:00,75.0,66.0,30.27,SSE,150,4.0,14.0,73,0.00,,,0.00,599.000000,,2013-04-29 04:52:00,
2013-04-28 19:22:00,73.0,66.0,30.28,East,100,9.0,12.0,80,0.00,,,0.00,111.000000,,2013-04-29 05:22:00,
2013-04-28 19:32:00,73.0,66.0,30.28,East,100,9.0,12.0,80,0.00,,,0.00,111.000000,,2013-04-29 05:32:00,
2013-04-28 19:42:00,73.0,66.0,30.28,East,100,9.0,12.0,80,0.00,,,0.00,111.000000,,2013-04-29 05:42:00,
2013-04-28 19:52:00,73.0,66.0,30.28,East,100,9.0,12.0,80,0.00,,,0.00,111.000000,,2013-04-29 05:52:00,
2013-04-28 20:21:00,74.0,67.0,30.30,East,93,9.0,14.0,80,0.00,,,-99.99,27.000000,,2013-04-29 06:21:00,
2013-04-28 20:32:00,74.0,67.0,30.30,East,93,9.0,14.0,80,0.00,,,-99.99,27.000000,,2013-04-29 06:32:00,
2013-04-28 20:42:00,74.0,67.0,30.30,East,93,9.0,14.0,80,0.00,,,-99.99,27.000000,,2013-04-29 06:42:00,
2013-04-28 20:51:00,74.0,67.0,30.30,East,93,9.0,14.0,80,0.00,,,-99.99,27.000000,,2013-04-29 06:51:00,
2013-04-28 21:21:00,72.0,67.0,30.32,ESE,102,9.0,15.0,84,0.00,,,0.00,0.000000,,2013-04-29 07:21:00,
2013-04-28 21:32:00,72.0,67.0,30.32,ESE,102,9.0,15.0,84,0.00,,,0.00,0.000000,,2013-04-29 07:32:00,
2013-04-28 21:41:00,72.0,67.0,30.32,ESE,102,9.0,15.0,84,0.00,,,0.00,0.000000,,2013-04-29 07:41:00,
2013-04-28 21:52:00,72.0,67.0,30.32,ESE,102,9.0,15.0,84,0.00,,,0.00,0.000000,,2013-04-29 07:52:00,
2013-04-28 22:21:00,72.0,67.0,30.32,ESE,104,9.0,15.0,84,0.00,,,0.00,0.000000,,2013-04-29 08:21:00,
2013-04-28 22:31:00,72.0,67.0,30.32,ESE,104,9.0,15.0,84,0.00,,,0.00,0.000000,,2013-04-29 08:31:00,
2013-04-28 22:42:00,72.0,67.0,30.32,ESE,104,9.0,15.0,84,0.00,,,0.00,0.000000,,2013-04-29 08:42:00,
2013-04-28 22:51:00,72.0,67.0,30.32,ESE,104,9.0,15.0,84,0.00,,,0.00,0.000000,,2013-04-29 08:51:00,
2013-04-28 23:12:00,73.0,69.0,30.32,East,93,10.0,16.0,86,0.00,,,-99.99,0.000000,,2013-04-29 09:12:00,
2013-04-28 23:21:00,73.0,69.0,30.32,East,93,10.0,16.0,86,0.00,,,-99.99,0.000000,,2013-04-29 09:21:00,
2013-04-28 23:32:00,73.0,69.0,30.32,East,93,10.0,16.0,86,0.00,,,-99.99,0.000000,,2013-04-29 09:32:00,
2013-04-28 23:42:00,73.0,69.0,30.32,East,93,10.0,16.0,86,0.00,,,-99.99,0.000000,,2013-04-29 09:42:00,
2013-04-28 23:52:00,73.0,69.0,30.32,East,93,10.0,16.0,86,0.00,,,-99.99,0.000000,,2013-04-29 09:52:00,